sensor_id;sensor_type;location;lat;lon;timestamp;P1;durP1;ratioP1;P2;durP2;ratioP2
37303;SDS011;23188;51.188;16.374;2022-10-22T00:01:09;16.82;;;12.95;;
37303;SDS011;23188;51.188;16.374;2022-10-22T00:05:12;16.55;;;14.00;;
37303;SDS011;23188;51.188;16.374;2022-10-22T00:09:14;16.12;;;12.73;;
37303;SDS011;23188;51.188;16.374;2022-10-22T00:13:15;22.82;;;14.18;;
37303;SDS011;23188;51.188;16.374;2022-10-22T00:17:16;18.65;;;12.85;;
37303;SDS011;23188;51.188;16.374;2022-10-22T00:21:18;14.80;;;11.73;;
37303;SDS011;23188;51.188;16.374;2022-10-22T00:25:19;15.88;;;11.50;;
37303;SDS011;23188;51.188;16.374;2022-10-22T00:29:20;15.43;;;12.80;;
37303;SDS011;23188;51.188;16.374;2022-10-22T00:33:21;18.55;;;12.40;;
37303;SDS011;23188;51.188;16.374;2022-10-22T00:37:23;17.50;;;10.90;;
37303;SDS011;23188;51.188;16.374;2022-10-22T00:41:24;16.17;;;13.18;;
37303;SDS011;23188;51.188;16.374;2022-10-22T00:45:25;13.93;;;9.75;;
37303;SDS011;23188;51.188;16.374;2022-10-22T00:49:28;19.17;;;10.20;;
37303;SDS011;23188;51.188;16.374;2022-10-22T00:53:33;13.08;;;11.57;;
37303;SDS011;23188;51.188;16.374;2022-10-22T00:57:41;15.18;;;11.00;;
37303;SDS011;23188;51.188;16.374;2022-10-22T01:01:44;19.60;;;10.55;;
37303;SDS011;23188;51.188;16.374;2022-10-22T01:05:50;12.47;;;10.75;;
37303;SDS011;23188;51.188;16.374;2022-10-22T01:09:59;30.10;;;11.00;;
37303;SDS011;23188;51.188;16.374;2022-10-22T01:18:48;16.32;;;10.53;;
37303;SDS011;23188;51.188;16.374;2022-10-22T01:23:09;14.15;;;11.57;;
37303;SDS011;23188;51.188;16.374;2022-10-22T01:31:54;15.32;;;11.25;;
37303;SDS011;23188;51.188;16.374;2022-10-22T01:40:14;16.55;;;10.93;;
37303;SDS011;23188;51.188;16.374;2022-10-22T01:44:23;14.35;;;11.22;;
37303;SDS011;23188;51.188;16.374;2022-10-22T01:57:27;12.43;;;9.88;;
37303;SDS011;23188;51.188;16.374;2022-10-22T02:01:52;9.55;;;8.65;;
37303;SDS011;23188;51.188;16.374;2022-10-22T02:06:23;21.65;;;11.45;;
37303;SDS011;23188;51.188;16.374;2022-10-22T02:10:25;12.45;;;10.70;;
37303;SDS011;23188;51.188;16.374;2022-10-22T02:14:29;16.45;;;11.68;;
37303;SDS011;23188;51.188;16.374;2022-10-22T02:18:32;18.07;;;11.80;;
37303;SDS011;23188;51.188;16.374;2022-10-22T02:22:38;14.90;;;10.58;;
37303;SDS011;23188;51.188;16.374;2022-10-22T02:26:53;14.95;;;10.50;;
37303;SDS011;23188;51.188;16.374;2022-10-22T02:31:14;14.63;;;10.40;;
37303;SDS011;23188;51.188;16.374;2022-10-22T02:35:17;13.98;;;9.38;;
37303;SDS011;23188;51.188;16.374;2022-10-22T02:39:19;16.48;;;10.25;;
37303;SDS011;23188;51.188;16.374;2022-10-22T02:43:23;11.75;;;9.80;;
37303;SDS011;23188;51.188;16.374;2022-10-22T02:47:25;13.22;;;9.40;;
37303;SDS011;23188;51.188;16.374;2022-10-22T02:51:26;18.65;;;11.33;;
37303;SDS011;23188;51.188;16.374;2022-10-22T02:55:27;15.45;;;11.00;;
37303;SDS011;23188;51.188;16.374;2022-10-22T02:59:28;13.78;;;10.30;;
37303;SDS011;23188;51.188;16.374;2022-10-22T03:03:29;18.75;;;9.45;;
37303;SDS011;23188;51.188;16.374;2022-10-22T03:07:30;13.35;;;8.90;;
37303;SDS011;23188;51.188;16.374;2022-10-22T03:11:31;13.80;;;8.80;;
37303;SDS011;23188;51.188;16.374;2022-10-22T03:15:32;12.05;;;9.48;;
37303;SDS011;23188;51.188;16.374;2022-10-22T03:19:33;18.00;;;12.10;;
37303;SDS011;23188;51.188;16.374;2022-10-22T03:23:35;19.52;;;10.88;;
37303;SDS011;23188;51.188;16.374;2022-10-22T03:27:38;12.47;;;7.62;;
37303;SDS011;23188;51.188;16.374;2022-10-22T03:31:41;8.85;;;7.90;;
37303;SDS011;23188;51.188;16.374;2022-10-22T03:35:43;12.07;;;9.23;;
37303;SDS011;23188;51.188;16.374;2022-10-22T03:39:46;14.28;;;9.10;;
37303;SDS011;23188;51.188;16.374;2022-10-22T03:43:47;12.37;;;9.40;;
37303;SDS011;23188;51.188;16.374;2022-10-22T03:47:50;14.03;;;8.40;;
37303;SDS011;23188;51.188;16.374;2022-10-22T03:51:51;12.25;;;9.78;;
37303;SDS011;23188;51.188;16.374;2022-10-22T03:55:52;13.93;;;8.95;;
37303;SDS011;23188;51.188;16.374;2022-10-22T03:59:53;14.38;;;8.65;;
37303;SDS011;23188;51.188;16.374;2022-10-22T04:03:55;9.68;;;8.58;;
37303;SDS011;23188;51.188;16.374;2022-10-22T04:07:57;10.28;;;8.53;;
37303;SDS011;23188;51.188;16.374;2022-10-22T04:11:58;11.18;;;7.42;;
37303;SDS011;23188;51.188;16.374;2022-10-22T04:16:11;14.18;;;9.63;;
37303;SDS011;23188;51.188;16.374;2022-10-22T04:20:14;16.73;;;9.15;;
37303;SDS011;23188;51.188;16.374;2022-10-22T04:24:15;10.15;;;8.65;;
37303;SDS011;23188;51.188;16.374;2022-10-22T04:28:17;13.90;;;10.13;;
37303;SDS011;23188;51.188;16.374;2022-10-22T04:32:18;13.83;;;9.30;;
37303;SDS011;23188;51.188;16.374;2022-10-22T04:36:19;13.83;;;8.43;;
37303;SDS011;23188;51.188;16.374;2022-10-22T04:40:20;10.80;;;8.08;;
37303;SDS011;23188;51.188;16.374;2022-10-22T04:44:22;13.00;;;9.20;;
37303;SDS011;23188;51.188;16.374;2022-10-22T04:48:23;12.23;;;9.60;;
37303;SDS011;23188;51.188;16.374;2022-10-22T04:52:24;11.65;;;8.58;;
37303;SDS011;23188;51.188;16.374;2022-10-22T04:56:26;11.30;;;9.33;;
37303;SDS011;23188;51.188;16.374;2022-10-22T05:00:29;8.73;;;6.95;;
37303;SDS011;23188;51.188;16.374;2022-10-22T05:04:30;9.73;;;8.03;;
37303;SDS011;23188;51.188;16.374;2022-10-22T05:08:32;9.70;;;7.03;;
37303;SDS011;23188;51.188;16.374;2022-10-22T05:12:33;13.30;;;7.75;;
37303;SDS011;23188;51.188;16.374;2022-10-22T05:16:35;13.93;;;8.03;;
37303;SDS011;23188;51.188;16.374;2022-10-22T05:20:40;10.15;;;8.03;;
37303;SDS011;23188;51.188;16.374;2022-10-22T05:24:42;10.00;;;7.72;;
37303;SDS011;23188;51.188;16.374;2022-10-22T05:28:43;10.10;;;8.68;;
37303;SDS011;23188;51.188;16.374;2022-10-22T05:32:45;9.70;;;7.75;;
37303;SDS011;23188;51.188;16.374;2022-10-22T05:36:46;11.83;;;7.03;;
37303;SDS011;23188;51.188;16.374;2022-10-22T05:40:47;10.48;;;8.05;;
37303;SDS011;23188;51.188;16.374;2022-10-22T05:45:01;15.72;;;8.85;;
37303;SDS011;23188;51.188;16.374;2022-10-22T05:49:03;10.93;;;7.40;;
37303;SDS011;23188;51.188;16.374;2022-10-22T05:53:06;12.65;;;9.60;;
37303;SDS011;23188;51.188;16.374;2022-10-22T05:57:07;16.10;;;9.00;;
37303;SDS011;23188;51.188;16.374;2022-10-22T06:01:13;10.85;;;9.70;;
37303;SDS011;23188;51.188;16.374;2022-10-22T06:05:20;13.98;;;9.15;;
37303;SDS011;23188;51.188;16.374;2022-10-22T06:09:22;13.18;;;9.10;;
37303;SDS011;23188;51.188;16.374;2022-10-22T06:13:33;12.47;;;8.90;;
37303;SDS011;23188;51.188;16.374;2022-10-22T06:17:34;15.30;;;8.03;;
37303;SDS011;23188;51.188;16.374;2022-10-22T06:21:35;15.25;;;8.85;;
37303;SDS011;23188;51.188;16.374;2022-10-22T06:25:37;10.65;;;8.03;;
37303;SDS011;23188;51.188;16.374;2022-10-22T06:29:38;13.85;;;10.55;;
37303;SDS011;23188;51.188;16.374;2022-10-22T06:33:39;16.90;;;9.30;;
37303;SDS011;23188;51.188;16.374;2022-10-22T06:37:43;16.73;;;8.68;;
37303;SDS011;23188;51.188;16.374;2022-10-22T06:41:46;12.50;;;8.93;;
37303;SDS011;23188;51.188;16.374;2022-10-22T06:45:48;14.60;;;9.55;;
37303;SDS011;23188;51.188;16.374;2022-10-22T06:49:49;15.88;;;9.88;;
37303;SDS011;23188;51.188;16.374;2022-10-22T06:53:50;19.35;;;8.93;;
37303;SDS011;23188;51.188;16.374;2022-10-22T06:57:51;12.63;;;9.58;;
37303;SDS011;23188;51.188;16.374;2022-10-22T07:01:52;11.43;;;9.30;;
37303;SDS011;23188;51.188;16.374;2022-10-22T07:05:53;19.32;;;11.97;;
37303;SDS011;23188;51.188;16.374;2022-10-22T07:09:54;14.55;;;9.33;;
37303;SDS011;23188;51.188;16.374;2022-10-22T07:13:56;14.28;;;9.75;;
37303;SDS011;23188;51.188;16.374;2022-10-22T07:17:59;18.75;;;11.43;;
37303;SDS011;23188;51.188;16.374;2022-10-22T07:22:00;18.62;;;12.35;;
37303;SDS011;23188;51.188;16.374;2022-10-22T07:26:02;12.65;;;10.35;;
37303;SDS011;23188;51.188;16.374;2022-10-22T07:30:06;18.95;;;11.57;;
37303;SDS011;23188;51.188;16.374;2022-10-22T07:34:09;15.40;;;11.35;;
37303;SDS011;23188;51.188;16.374;2022-10-22T07:38:10;16.30;;;10.28;;
37303;SDS011;23188;51.188;16.374;2022-10-22T07:42:11;21.68;;;12.25;;
37303;SDS011;23188;51.188;16.374;2022-10-22T07:46:12;19.62;;;12.68;;
37303;SDS011;23188;51.188;16.374;2022-10-22T07:50:14;24.67;;;12.13;;
37303;SDS011;23188;51.188;16.374;2022-10-22T07:54:15;19.00;;;11.70;;
37303;SDS011;23188;51.188;16.374;2022-10-22T07:58:18;16.12;;;11.93;;
37303;SDS011;23188;51.188;16.374;2022-10-22T08:02:22;20.85;;;11.45;;
37303;SDS011;23188;51.188;16.374;2022-10-22T08:06:24;16.82;;;11.83;;
37303;SDS011;23188;51.188;16.374;2022-10-22T08:10:25;22.98;;;12.53;;
37303;SDS011;23188;51.188;16.374;2022-10-22T08:14:26;18.37;;;12.10;;
37303;SDS011;23188;51.188;16.374;2022-10-22T08:18:28;18.70;;;10.70;;
37303;SDS011;23188;51.188;16.374;2022-10-22T08:22:29;18.20;;;12.00;;
37303;SDS011;23188;51.188;16.374;2022-10-22T08:26:31;21.00;;;13.50;;
37303;SDS011;23188;51.188;16.374;2022-10-22T08:30:32;19.27;;;13.00;;
37303;SDS011;23188;51.188;16.374;2022-10-22T08:34:36;22.05;;;14.20;;
37303;SDS011;23188;51.188;16.374;2022-10-22T08:38:37;20.20;;;13.05;;
37303;SDS011;23188;51.188;16.374;2022-10-22T08:42:52;20.40;;;13.43;;
37303;SDS011;23188;51.188;16.374;2022-10-22T08:51:40;24.32;;;13.90;;
37303;SDS011;23188;51.188;16.374;2022-10-22T08:55:42;23.65;;;15.03;;
37303;SDS011;23188;51.188;16.374;2022-10-22T08:59:46;26.60;;;13.40;;
37303;SDS011;23188;51.188;16.374;2022-10-22T09:04:11;18.70;;;11.68;;
37303;SDS011;23188;51.188;16.374;2022-10-22T09:08:24;20.70;;;12.90;;
37303;SDS011;23188;51.188;16.374;2022-10-22T09:12:25;29.20;;;13.72;;
37303;SDS011;23188;51.188;16.374;2022-10-22T09:21:05;23.10;;;13.85;;
37303;SDS011;23188;51.188;16.374;2022-10-22T09:25:20;21.30;;;13.28;;
37303;SDS011;23188;51.188;16.374;2022-10-22T09:29:31;19.37;;;13.32;;
37303;SDS011;23188;51.188;16.374;2022-10-22T09:33:34;30.75;;;15.65;;
37303;SDS011;23188;51.188;16.374;2022-10-22T09:37:35;20.45;;;13.08;;
37303;SDS011;23188;51.188;16.374;2022-10-22T09:41:36;26.20;;;14.50;;
37303;SDS011;23188;51.188;16.374;2022-10-22T09:45:38;30.10;;;16.32;;
37303;SDS011;23188;51.188;16.374;2022-10-22T09:49:40;24.05;;;14.33;;
37303;SDS011;23188;51.188;16.374;2022-10-22T09:53:42;25.60;;;15.40;;
37303;SDS011;23188;51.188;16.374;2022-10-22T09:57:58;26.40;;;15.80;;
37303;SDS011;23188;51.188;16.374;2022-10-22T10:02:01;24.00;;;14.15;;
37303;SDS011;23188;51.188;16.374;2022-10-22T10:06:16;23.45;;;14.28;;
37303;SDS011;23188;51.188;16.374;2022-10-22T10:10:30;16.82;;;12.90;;
37303;SDS011;23188;51.188;16.374;2022-10-22T10:23:45;22.10;;;15.40;;
37303;SDS011;23188;51.188;16.374;2022-10-22T10:37:20;20.03;;;13.87;;
37303;SDS011;23188;51.188;16.374;2022-10-22T10:50:03;13.58;;;9.73;;
37303;SDS011;23188;51.188;16.374;2022-10-22T10:54:52;10.50;;;8.08;;
37303;SDS011;23188;51.188;16.374;2022-10-22T10:59:21;6.90;;;5.22;;
37303;SDS011;23188;51.188;16.374;2022-10-22T11:07:54;4.00;;;2.65;;
37303;SDS011;23188;51.188;16.374;2022-10-22T11:12:00;4.78;;;2.87;;
37303;SDS011;23188;51.188;16.374;2022-10-22T11:16:25;5.95;;;3.77;;
37303;SDS011;23188;51.188;16.374;2022-10-22T11:25:02;6.47;;;2.92;;
37303;SDS011;23188;51.188;16.374;2022-10-22T11:29:23;3.00;;;2.27;;
37303;SDS011;23188;51.188;16.374;2022-10-22T11:38:03;2.70;;;2.08;;
37303;SDS011;23188;51.188;16.374;2022-10-22T11:42:10;3.87;;;3.17;;
37303;SDS011;23188;51.188;16.374;2022-10-22T11:55:02;6.25;;;3.70;;
37303;SDS011;23188;51.188;16.374;2022-10-22T11:59:12;4.92;;;3.77;;
37303;SDS011;23188;51.188;16.374;2022-10-22T12:12:03;7.60;;;2.77;;
37303;SDS011;23188;51.188;16.374;2022-10-22T12:16:16;2.98;;;2.75;;
37303;SDS011;23188;51.188;16.374;2022-10-22T12:20:20;4.65;;;2.52;;
37303;SDS011;23188;51.188;16.374;2022-10-22T12:24:28;3.20;;;2.37;;
37303;SDS011;23188;51.188;16.374;2022-10-22T12:28:39;4.40;;;3.12;;
37303;SDS011;23188;51.188;16.374;2022-10-22T12:32:41;4.17;;;3.42;;
37303;SDS011;23188;51.188;16.374;2022-10-22T12:36:42;4.12;;;3.22;;
37303;SDS011;23188;51.188;16.374;2022-10-22T12:40:46;6.03;;;4.15;;
37303;SDS011;23188;51.188;16.374;2022-10-22T12:44:53;4.28;;;3.85;;
37303;SDS011;23188;51.188;16.374;2022-10-22T12:48:59;7.50;;;4.22;;
37303;SDS011;23188;51.188;16.374;2022-10-22T12:53:05;8.03;;;6.22;;
37303;SDS011;23188;51.188;16.374;2022-10-22T12:57:13;7.30;;;5.10;;
37303;SDS011;23188;51.188;16.374;2022-10-22T13:01:18;6.97;;;4.83;;
37303;SDS011;23188;51.188;16.374;2022-10-22T13:09:35;8.43;;;5.20;;
37303;SDS011;23188;51.188;16.374;2022-10-22T13:13:41;8.33;;;6.20;;
37303;SDS011;23188;51.188;16.374;2022-10-22T13:17:45;8.38;;;5.80;;
37303;SDS011;23188;51.188;16.374;2022-10-22T13:21:50;7.45;;;5.92;;
37303;SDS011;23188;51.188;16.374;2022-10-22T13:30:20;11.97;;;5.80;;
37303;SDS011;23188;51.188;16.374;2022-10-22T13:34:31;5.67;;;4.55;;
37303;SDS011;23188;51.188;16.374;2022-10-22T13:38:33;7.92;;;7.08;;
37303;SDS011;23188;51.188;16.374;2022-10-22T13:42:34;7.75;;;5.95;;
37303;SDS011;23188;51.188;16.374;2022-10-22T13:46:35;6.08;;;5.25;;
37303;SDS011;23188;51.188;16.374;2022-10-22T13:50:39;6.50;;;5.12;;
37303;SDS011;23188;51.188;16.374;2022-10-22T13:54:40;6.97;;;4.78;;
37303;SDS011;23188;51.188;16.374;2022-10-22T14:03:42;7.37;;;5.78;;
37303;SDS011;23188;51.188;16.374;2022-10-22T14:07:43;6.87;;;5.85;;
37303;SDS011;23188;51.188;16.374;2022-10-22T14:11:45;9.98;;;6.12;;
37303;SDS011;23188;51.188;16.374;2022-10-22T14:15:47;7.03;;;5.65;;
37303;SDS011;23188;51.188;16.374;2022-10-22T14:19:50;9.15;;;6.87;;
37303;SDS011;23188;51.188;16.374;2022-10-22T14:23:51;11.40;;;5.90;;
37303;SDS011;23188;51.188;16.374;2022-10-22T14:27:53;7.75;;;6.10;;
37303;SDS011;23188;51.188;16.374;2022-10-22T14:31:56;8.08;;;6.70;;
37303;SDS011;23188;51.188;16.374;2022-10-22T14:35:58;7.42;;;6.30;;
37303;SDS011;23188;51.188;16.374;2022-10-22T14:40:00;8.93;;;7.10;;
37303;SDS011;23188;51.188;16.374;2022-10-22T14:44:02;11.12;;;6.10;;
37303;SDS011;23188;51.188;16.374;2022-10-22T14:48:03;8.53;;;6.75;;
37303;SDS011;23188;51.188;16.374;2022-10-22T14:52:05;9.95;;;7.03;;
37303;SDS011;23188;51.188;16.374;2022-10-22T14:56:10;8.98;;;7.45;;
37303;SDS011;23188;51.188;16.374;2022-10-22T15:00:14;8.00;;;7.25;;
37303;SDS011;23188;51.188;16.374;2022-10-22T15:04:17;6.83;;;6.08;;
37303;SDS011;23188;51.188;16.374;2022-10-22T15:08:18;9.38;;;6.78;;
37303;SDS011;23188;51.188;16.374;2022-10-22T15:12:20;8.55;;;7.30;;
37303;SDS011;23188;51.188;16.374;2022-10-22T15:16:21;10.63;;;6.90;;
37303;SDS011;23188;51.188;16.374;2022-10-22T15:24:44;10.65;;;6.92;;
37303;SDS011;23188;51.188;16.374;2022-10-22T15:28:45;10.05;;;7.92;;
37303;SDS011;23188;51.188;16.374;2022-10-22T15:32:46;8.55;;;6.80;;
37303;SDS011;23188;51.188;16.374;2022-10-22T15:36:48;8.00;;;7.03;;
37303;SDS011;23188;51.188;16.374;2022-10-22T15:40:49;9.73;;;6.55;;
37303;SDS011;23188;51.188;16.374;2022-10-22T15:45:01;8.98;;;6.58;;
37303;SDS011;23188;51.188;16.374;2022-10-22T15:49:03;6.70;;;5.83;;
37303;SDS011;23188;51.188;16.374;2022-10-22T15:53:04;8.50;;;6.72;;
37303;SDS011;23188;51.188;16.374;2022-10-22T15:57:06;9.05;;;7.05;;
37303;SDS011;23188;51.188;16.374;2022-10-22T16:01:09;8.68;;;6.50;;
37303;SDS011;23188;51.188;16.374;2022-10-22T16:05:13;9.53;;;7.80;;
37303;SDS011;23188;51.188;16.374;2022-10-22T16:09:16;10.23;;;6.37;;
37303;SDS011;23188;51.188;16.374;2022-10-22T16:13:20;7.00;;;5.25;;
37303;SDS011;23188;51.188;16.374;2022-10-22T16:17:24;7.62;;;5.62;;
37303;SDS011;23188;51.188;16.374;2022-10-22T16:21:25;6.37;;;5.22;;
37303;SDS011;23188;51.188;16.374;2022-10-22T16:25:27;10.13;;;5.87;;
37303;SDS011;23188;51.188;16.374;2022-10-22T16:29:28;8.20;;;5.85;;
37303;SDS011;23188;51.188;16.374;2022-10-22T16:33:29;9.35;;;5.95;;
37303;SDS011;23188;51.188;16.374;2022-10-22T16:37:32;13.18;;;6.37;;
37303;SDS011;23188;51.188;16.374;2022-10-22T16:41:34;7.60;;;5.97;;
37303;SDS011;23188;51.188;16.374;2022-10-22T16:45:35;6.55;;;4.50;;
37303;SDS011;23188;51.188;16.374;2022-10-22T16:49:36;7.53;;;6.17;;
37303;SDS011;23188;51.188;16.374;2022-10-22T16:53:38;9.28;;;6.25;;
37303;SDS011;23188;51.188;16.374;2022-10-22T16:57:39;9.53;;;7.08;;
37303;SDS011;23188;51.188;16.374;2022-10-22T17:01:40;6.83;;;5.97;;
37303;SDS011;23188;51.188;16.374;2022-10-22T17:05:41;7.03;;;5.37;;
37303;SDS011;23188;51.188;16.374;2022-10-22T17:09:42;7.67;;;6.22;;
37303;SDS011;23188;51.188;16.374;2022-10-22T17:13:44;6.15;;;5.33;;
37303;SDS011;23188;51.188;16.374;2022-10-22T17:17:48;8.43;;;6.45;;
37303;SDS011;23188;51.188;16.374;2022-10-22T17:21:51;8.70;;;5.70;;
37303;SDS011;23188;51.188;16.374;2022-10-22T17:25:59;6.10;;;4.60;;
37303;SDS011;23188;51.188;16.374;2022-10-22T17:30:07;7.40;;;5.78;;
37303;SDS011;23188;51.188;16.374;2022-10-22T17:34:15;15.63;;;6.37;;
37303;SDS011;23188;51.188;16.374;2022-10-22T17:38:17;5.70;;;4.60;;
37303;SDS011;23188;51.188;16.374;2022-10-22T17:42:18;10.03;;;4.87;;
37303;SDS011;23188;51.188;16.374;2022-10-22T17:46:24;7.20;;;5.62;;
37303;SDS011;23188;51.188;16.374;2022-10-22T17:50:27;7.25;;;5.37;;
37303;SDS011;23188;51.188;16.374;2022-10-22T17:54:28;5.78;;;4.55;;
37303;SDS011;23188;51.188;16.374;2022-10-22T17:58:29;7.17;;;5.55;;
37303;SDS011;23188;51.188;16.374;2022-10-22T18:02:30;5.67;;;5.17;;
37303;SDS011;23188;51.188;16.374;2022-10-22T18:06:32;6.20;;;4.65;;
37303;SDS011;23188;51.188;16.374;2022-10-22T18:10:37;8.48;;;5.87;;
37303;SDS011;23188;51.188;16.374;2022-10-22T18:14:41;8.10;;;6.25;;
37303;SDS011;23188;51.188;16.374;2022-10-22T18:18:44;8.23;;;5.22;;
37303;SDS011;23188;51.188;16.374;2022-10-22T18:22:47;8.18;;;6.35;;
37303;SDS011;23188;51.188;16.374;2022-10-22T18:26:48;8.20;;;5.92;;
37303;SDS011;23188;51.188;16.374;2022-10-22T18:30:49;6.90;;;4.40;;
37303;SDS011;23188;51.188;16.374;2022-10-22T18:34:50;5.53;;;5.03;;
37303;SDS011;23188;51.188;16.374;2022-10-22T18:38:56;8.05;;;5.25;;
37303;SDS011;23188;51.188;16.374;2022-10-22T18:42:57;5.03;;;3.98;;
37303;SDS011;23188;51.188;16.374;2022-10-22T18:46:58;6.87;;;4.90;;
37303;SDS011;23188;51.188;16.374;2022-10-22T18:51:00;6.03;;;4.87;;
37303;SDS011;23188;51.188;16.374;2022-10-22T18:59:12;7.15;;;5.08;;
37303;SDS011;23188;51.188;16.374;2022-10-22T19:03:19;7.70;;;5.58;;
37303;SDS011;23188;51.188;16.374;2022-10-22T19:07:20;6.65;;;5.00;;
37303;SDS011;23188;51.188;16.374;2022-10-22T19:11:21;6.40;;;4.92;;
37303;SDS011;23188;51.188;16.374;2022-10-22T19:15:23;8.40;;;4.55;;
37303;SDS011;23188;51.188;16.374;2022-10-22T19:19:24;7.47;;;5.95;;
37303;SDS011;23188;51.188;16.374;2022-10-22T19:23:26;7.75;;;6.25;;
37303;SDS011;23188;51.188;16.374;2022-10-22T19:27:30;7.55;;;6.40;;
37303;SDS011;23188;51.188;16.374;2022-10-22T19:31:32;7.03;;;5.37;;
37303;SDS011;23188;51.188;16.374;2022-10-22T19:35:34;5.83;;;5.30;;
37303;SDS011;23188;51.188;16.374;2022-10-22T19:39:36;9.25;;;6.80;;
37303;SDS011;23188;51.188;16.374;2022-10-22T19:43:38;11.12;;;7.05;;
37303;SDS011;23188;51.188;16.374;2022-10-22T19:47:40;9.50;;;6.00;;
37303;SDS011;23188;51.188;16.374;2022-10-22T19:51:41;8.35;;;6.05;;
37303;SDS011;23188;51.188;16.374;2022-10-22T19:55:42;12.60;;;8.50;;
37303;SDS011;23188;51.188;16.374;2022-10-22T19:59:44;9.95;;;6.42;;
37303;SDS011;23188;51.188;16.374;2022-10-22T20:03:45;11.43;;;8.18;;
37303;SDS011;23188;51.188;16.374;2022-10-22T20:07:47;37.55;;;20.95;;
37303;SDS011;23188;51.188;16.374;2022-10-22T20:11:48;27.98;;;18.45;;
37303;SDS011;23188;51.188;16.374;2022-10-22T20:15:49;14.58;;;9.28;;
37303;SDS011;23188;51.188;16.374;2022-10-22T20:19:52;13.05;;;9.23;;
37303;SDS011;23188;51.188;16.374;2022-10-22T20:23:56;9.98;;;7.67;;
37303;SDS011;23188;51.188;16.374;2022-10-22T20:27:57;10.55;;;7.55;;
37303;SDS011;23188;51.188;16.374;2022-10-22T20:31:58;10.82;;;9.25;;
37303;SDS011;23188;51.188;16.374;2022-10-22T20:36:04;17.42;;;12.98;;
37303;SDS011;23188;51.188;16.374;2022-10-22T20:40:09;12.40;;;9.33;;
37303;SDS011;23188;51.188;16.374;2022-10-22T20:44:11;11.68;;;7.97;;
37303;SDS011;23188;51.188;16.374;2022-10-22T20:48:17;10.53;;;8.38;;
37303;SDS011;23188;51.188;16.374;2022-10-22T20:52:18;13.20;;;9.98;;
37303;SDS011;23188;51.188;16.374;2022-10-22T20:56:19;11.08;;;8.25;;
37303;SDS011;23188;51.188;16.374;2022-10-22T21:00:21;12.98;;;10.30;;
37303;SDS011;23188;51.188;16.374;2022-10-22T21:04:22;18.52;;;11.00;;
37303;SDS011;23188;51.188;16.374;2022-10-22T21:08:23;14.93;;;10.00;;
37303;SDS011;23188;51.188;16.374;2022-10-22T21:12:24;11.90;;;8.38;;
37303;SDS011;23188;51.188;16.374;2022-10-22T21:16:26;11.15;;;8.60;;
37303;SDS011;23188;51.188;16.374;2022-10-22T21:20:27;19.80;;;10.75;;
37303;SDS011;23188;51.188;16.374;2022-10-22T21:24:28;12.43;;;9.45;;
37303;SDS011;23188;51.188;16.374;2022-10-22T21:28:30;9.18;;;7.90;;
37303;SDS011;23188;51.188;16.374;2022-10-22T21:32:34;10.90;;;9.17;;
37303;SDS011;23188;51.188;16.374;2022-10-22T21:36:35;10.78;;;8.53;;
37303;SDS011;23188;51.188;16.374;2022-10-22T21:40:36;17.17;;;8.50;;
37303;SDS011;23188;51.188;16.374;2022-10-22T21:44:37;11.85;;;9.68;;
37303;SDS011;23188;51.188;16.374;2022-10-22T21:48:38;10.50;;;8.20;;
37303;SDS011;23188;51.188;16.374;2022-10-22T21:52:40;12.35;;;9.13;;
37303;SDS011;23188;51.188;16.374;2022-10-22T21:56:41;11.57;;;9.68;;
37303;SDS011;23188;51.188;16.374;2022-10-22T22:00:42;16.42;;;9.20;;
37303;SDS011;23188;51.188;16.374;2022-10-22T22:04:49;14.63;;;10.53;;
37303;SDS011;23188;51.188;16.374;2022-10-22T22:08:52;12.80;;;10.10;;
37303;SDS011;23188;51.188;16.374;2022-10-22T22:12:54;11.68;;;7.92;;
37303;SDS011;23188;51.188;16.374;2022-10-22T22:16:56;9.28;;;7.80;;
37303;SDS011;23188;51.188;16.374;2022-10-22T22:20:57;11.53;;;7.85;;
37303;SDS011;23188;51.188;16.374;2022-10-22T22:24:59;13.55;;;8.60;;
37303;SDS011;23188;51.188;16.374;2022-10-22T22:29:00;11.28;;;7.87;;
37303;SDS011;23188;51.188;16.374;2022-10-22T22:33:02;12.45;;;8.73;;
37303;SDS011;23188;51.188;16.374;2022-10-22T22:37:03;10.58;;;7.95;;
37303;SDS011;23188;51.188;16.374;2022-10-22T22:41:07;12.63;;;8.75;;
37303;SDS011;23188;51.188;16.374;2022-10-22T22:45:09;16.32;;;9.80;;
37303;SDS011;23188;51.188;16.374;2022-10-22T22:49:10;12.82;;;9.00;;
37303;SDS011;23188;51.188;16.374;2022-10-22T22:53:13;9.80;;;6.87;;
37303;SDS011;23188;51.188;16.374;2022-10-22T22:57:14;9.35;;;6.75;;
37303;SDS011;23188;51.188;16.374;2022-10-22T23:01:16;10.82;;;7.62;;
37303;SDS011;23188;51.188;16.374;2022-10-22T23:05:21;8.00;;;7.08;;
37303;SDS011;23188;51.188;16.374;2022-10-22T23:09:22;10.90;;;6.60;;
37303;SDS011;23188;51.188;16.374;2022-10-22T23:13:23;8.70;;;7.12;;
37303;SDS011;23188;51.188;16.374;2022-10-22T23:17:24;11.97;;;7.60;;
37303;SDS011;23188;51.188;16.374;2022-10-22T23:21:26;9.60;;;7.05;;
37303;SDS011;23188;51.188;16.374;2022-10-22T23:25:31;8.00;;;6.25;;
37303;SDS011;23188;51.188;16.374;2022-10-22T23:29:32;7.17;;;5.33;;
37303;SDS011;23188;51.188;16.374;2022-10-22T23:33:35;7.10;;;5.30;;
37303;SDS011;23188;51.188;16.374;2022-10-22T23:37:36;8.10;;;5.95;;
37303;SDS011;23188;51.188;16.374;2022-10-22T23:41:38;11.63;;;6.95;;
37303;SDS011;23188;51.188;16.374;2022-10-22T23:45:39;7.72;;;5.97;;
37303;SDS011;23188;51.188;16.374;2022-10-22T23:49:40;15.05;;;11.03;;
37303;SDS011;23188;51.188;16.374;2022-10-22T23:53:41;11.97;;;8.88;;
37303;SDS011;23188;51.188;16.374;2022-10-22T23:57:43;14.58;;;8.85;;
